Time;durP1;ratioP1;P1;durP2;ratioP2;P2;SDS_P1;SDS_P2;PMS_P1;PMS_P2;Temp;Humidity;BMP_temperature;BMP_pressure;BME280_temperature;BME280_humidity;BME280_pressure;Samples;Min_cycle;Max_cycle;Signal;HPM_P1;HPM_P2
2023/06/08 00:00:05;;;;;;;7.87;7.20;;;16.50;79.70;;;;;;5050589;28;20182;-75
2023/06/08 00:02:32;;;;;;;7.20;6.50;;;16.50;79.90;;;;;;5030848;28;20593;-78
2023/06/08 00:05:02;;;;;;;6.33;5.70;;;16.60;79.00;;;;;;5042852;28;20268;-78
2023/06/08 00:07:30;;;;;;;5.93;5.37;;;16.60;79.00;;;;;;5043479;28;20209;-75
2023/06/08 00:09:58;;;;;;;4.80;4.40;;;16.70;78.80;;;;;;5038673;28;20534;-75
2023/06/08 00:12:27;;;;;;;4.67;4.27;;;16.70;78.40;;;;;;5042770;28;20223;-72
2023/06/08 00:14:55;;;;;;;7.80;4.80;;;16.70;78.40;;;;;;5047024;28;20183;-73
2023/06/08 00:17:27;;;;;;;10.37;5.20;;;16.90;78.30;;;;;;5041677;28;20202;-76
2023/06/08 00:19:56;;;;;;;5.27;4.30;;;17.10;78.20;;;;;;5038535;28;20217;-75
2023/06/08 00:22:24;;;;;;;6.03;4.80;;;17.00;77.50;;;;;;5039442;28;20241;-76
2023/06/08 00:24:51;;;;;;;8.03;4.00;;;17.00;77.70;;;;;;5044470;28;20183;-75
2023/06/08 00:27:19;;;;;;;4.57;4.17;;;17.10;77.90;;;;;;5040470;28;20220;-76
2023/06/08 00:29:46;;;;;;;4.63;4.13;;;17.10;77.80;;;;;;5044743;28;20191;-75
2023/06/08 00:32:13;;;;;;;4.40;4.00;;;17.00;77.90;;;;;;5044943;28;20183;-76
2023/06/08 00:34:40;;;;;;;9.03;4.40;;;17.00;77.90;;;;;;5041311;28;20183;-76
2023/06/08 00:37:08;;;;;;;5.80;4.03;;;17.00;78.20;;;;;;5047490;28;20551;-76
2023/06/08 00:39:35;;;;;;;4.07;3.73;;;17.00;78.10;;;;;;5038669;28;20215;-74
2023/06/08 00:42:03;;;;;;;7.30;4.07;;;17.00;78.10;;;;;;5044773;28;20189;-75
2023/06/08 00:44:30;;;;;;;3.40;3.20;;;17.00;78.20;;;;;;5043832;28;20177;-69
2023/06/08 00:46:59;;;;;;;6.30;3.50;;;17.00;77.80;;;;;;5035033;28;20212;-76
2023/06/08 00:49:30;;;;;;;4.70;3.37;;;16.90;77.70;;;;;;5018729;28;20513;-77
2023/06/08 00:51:57;;;;;;;4.97;3.50;;;16.90;77.80;;;;;;5036246;28;20194;-75
2023/06/08 00:54:25;;;;;;;9.43;4.40;;;16.90;77.80;;;;;;5040851;28;20187;-76
2023/06/08 00:56:55;;;;;;;9.13;3.30;;;16.90;78.00;;;;;;5041351;28;20199;-77
2023/06/08 00:59:23;;;;;;;6.37;3.60;;;16.90;77.40;;;;;;5043951;28;20242;-77
2023/06/08 01:01:51;;;;;;;3.27;3.00;;;17.00;77.70;;;;;;5040164;28;20216;-76
2023/06/08 01:04:18;;;;;;;8.07;2.97;;;17.00;77.20;;;;;;5042284;28;20321;-70
2023/06/08 01:06:49;;;;;;;6.37;2.80;;;17.10;76.90;;;;;;5035564;28;20209;-76
2023/06/08 01:09:37;;;;;;;4.20;2.73;;;17.10;76.60;;;;;;5044187;28;20186;-76
2023/06/08 01:12:05;;;;;;;3.07;2.60;;;17.30;76.60;;;;;;5048430;28;20168;-76
2023/06/08 01:14:58;;;;;;;6.63;2.87;;;17.40;75.70;;;;;;5047582;28;20185;-78
2023/06/08 01:17:35;;;;;;;3.13;2.30;;;17.50;75.40;;;;;;5045558;28;20233;-72
2023/06/08 01:20:32;;;;;;;2.80;2.50;;;17.70;74.70;;;;;;5046497;28;20271;-76
2023/06/08 01:23:26;;;;;;;8.03;2.60;;;17.80;74.80;;;;;;5036635;28;20194;-79
2023/06/08 01:26:00;;;;;;;4.77;2.13;;;17.80;74.20;;;;;;5043605;28;20281;-78
2023/06/08 01:28:30;;;;;;;5.10;2.00;;;17.90;74.10;;;;;;5036387;28;20264;-75
2023/06/08 01:30:58;;;;;;;3.47;2.10;;;17.90;73.90;;;;;;5043682;28;20180;-76
2023/06/08 01:33:29;;;;;;;6.67;2.30;;;17.80;73.90;;;;;;5038670;28;20192;-76
2023/06/08 01:36:21;;;;;;;5.53;2.37;;;17.80;74.10;;;;;;5040764;28;20188;-78
2023/06/08 01:39:25;;;;;;;3.10;2.20;;;17.70;74.20;;;;;;5048852;28;20543;-74
2023/06/08 01:41:55;;;;;;;6.10;2.43;;;17.60;74.70;;;;;;5040394;28;20199;-78
2023/06/08 01:44:23;;;;;;;4.70;2.00;;;17.60;74.90;;;;;;5042651;28;20198;-77
2023/06/08 01:47:02;;;;;;;3.87;2.33;;;17.60;74.50;;;;;;5046223;28;20212;-76
2023/06/08 01:49:30;;;;;;;3.70;2.20;;;17.50;74.70;;;;;;5045866;28;20210;-75
2023/06/08 01:51:58;;;;;;;51.03;7.23;;;17.60;75.00;;;;;;5050148;28;20188;-75
2023/06/08 01:54:25;;;;;;;3.63;2.57;;;17.50;75.00;;;;;;5046888;28;20184;-76
2023/06/08 01:56:53;;;;;;;3.17;2.10;;;17.50;75.00;;;;;;5045418;28;20188;-75
2023/06/08 01:59:20;;;;;;;2.60;2.30;;;17.50;75.10;;;;;;5038630;28;20204;-78
2023/06/08 02:01:47;;;;;;;5.87;2.30;;;17.40;75.10;;;;;;5043220;28;20184;-75
2023/06/08 02:04:15;;;;;;;4.77;2.70;;;17.40;75.20;;;;;;5041770;28;20180;-78
2023/06/08 02:06:42;;;;;;;5.40;2.30;;;17.40;75.40;;;;;;5046790;28;20235;-75
2023/06/08 02:09:10;;;;;;;4.70;2.57;;;17.40;75.50;;;;;;5042467;28;20253;-77
2023/06/08 02:11:37;;;;;;;4.20;2.50;;;17.30;75.40;;;;;;5039523;28;20192;-77
2023/06/08 02:14:05;;;;;;;5.07;2.53;;;17.30;75.20;;;;;;5041612;28;20240;-78
2023/06/08 02:16:33;;;;;;;5.53;2.70;;;17.30;75.50;;;;;;5041385;28;20186;-77
2023/06/08 02:19:01;;;;;;;4.87;2.50;;;17.20;75.60;;;;;;5046502;28;20176;-77
2023/06/08 02:21:29;;;;;;;3.80;2.50;;;17.20;75.70;;;;;;5029471;28;20172;-77
2023/06/08 02:23:56;;;;;;;8.77;3.67;;;17.20;75.70;;;;;;5042952;28;20379;-77
2023/06/08 02:26:24;;;;;;;2.87;2.47;;;17.20;75.80;;;;;;5047503;28;20226;-78
2023/06/08 02:28:51;;;;;;;4.77;2.90;;;17.20;75.80;;;;;;5041961;28;20187;-79
2023/06/08 02:31:18;;;;;;;6.47;2.90;;;17.20;75.90;;;;;;5042383;28;20186;-70
2023/06/08 02:33:45;;;;;;;5.37;2.80;;;17.20;76.10;;;;;;5041111;28;20237;-72
2023/06/08 02:36:13;;;;;;;4.83;3.10;;;17.30;76.00;;;;;;5020493;28;20222;-73
2023/06/08 02:38:40;;;;;;;4.57;2.90;;;17.30;76.10;;;;;;5040522;28;20219;-72
2023/06/08 02:41:07;;;;;;;6.20;2.53;;;17.40;75.60;;;;;;5043084;28;20195;-69
2023/06/08 02:43:35;;;;;;;2.47;2.27;;;17.50;75.40;;;;;;5041788;28;20184;-75
2023/06/08 02:46:02;;;;;;;5.80;2.70;;;17.60;74.90;;;;;;5042048;28;20186;-71
2023/06/08 02:48:29;;;;;;;4.97;2.50;;;17.60;74.70;;;;;;5037465;28;20224;-72
2023/06/08 02:50:57;;;;;;;6.50;2.23;;;17.60;74.40;;;;;;5042088;28;20191;-72
2023/06/08 02:53:24;;;;;;;7.13;2.57;;;17.70;74.60;;;;;;5039791;28;20180;-76
2023/06/08 02:55:52;;;;;;;6.87;2.00;;;17.70;74.20;;;;;;5040007;28;20199;-74
2023/06/08 02:58:19;;;;;;;6.03;2.40;;;17.70;73.50;;;;;;5035200;28;20201;-71
2023/06/08 03:00:53;;;;;;;5.83;1.87;;;17.80;73.60;;;;;;5036658;28;20275;-74
2023/06/08 03:03:24;;;;;;;7.47;2.27;;;17.80;72.40;;;;;;5038932;28;20188;-73
2023/06/08 03:05:58;;;;;;;6.07;1.97;;;17.90;72.60;;;;;;5036544;28;20180;-76
2023/06/08 03:08:29;;;;;;;2.90;1.80;;;18.00;72.30;;;;;;5041046;28;20234;-74
2023/06/08 03:10:56;;;;;;;11.87;2.50;;;18.10;72.30;;;;;;5040724;28;20273;-75
2023/06/08 03:13:23;;;;;;;4.27;2.30;;;18.20;73.10;;;;;;5016337;28;20184;-78
2023/06/08 03:15:52;;;;;;;4.80;1.90;;;18.20;73.40;;;;;;5038008;28;20184;-77
2023/06/08 03:18:19;;;;;;;4.20;2.37;;;18.10;73.30;;;;;;5034977;28;20180;-73
2023/06/08 03:20:47;;;;;;;4.27;2.47;;;18.10;74.70;;;;;;5046276;28;20253;-77
2023/06/08 03:23:15;;;;;;;6.97;2.17;;;18.00;74.70;;;;;;5038475;28;20184;-77
2023/06/08 03:25:44;;;;;;;2.50;1.80;;;17.80;73.20;;;;;;5043436;28;20259;-75
2023/06/08 03:28:11;;;;;;;5.80;2.40;;;17.80;74.20;;;;;;5039911;28;20658;-75
2023/06/08 03:30:39;;;;;;;3.77;2.57;;;17.70;75.50;;;;;;5038886;28;20218;-75
2023/06/08 03:33:06;;;;;;;6.63;3.33;;;17.70;76.30;;;;;;5044464;28;20187;-75
2023/06/08 03:35:33;;;;;;;5.03;3.30;;;17.80;77.00;;;;;;5042899;28;20710;-76
2023/06/08 03:38:01;;;;;;;6.73;3.10;;;17.70;76.60;;;;;;5049212;28;20180;-75
2023/06/08 03:40:28;;;;;;;7.00;2.87;;;17.70;76.50;;;;;;5043708;28;20165;-73
2023/06/08 03:42:55;;;;;;;5.43;3.03;;;17.70;76.60;;;;;;5040195;28;20662;-74
2023/06/08 03:45:23;;;;;;;3.40;3.10;;;17.60;76.80;;;;;;5041360;28;20275;-76
2023/06/08 03:47:50;;;;;;;3.83;3.10;;;17.60;77.10;;;;;;5036181;28;20208;-73
2023/06/08 03:50:17;;;;;;;5.60;3.80;;;17.50;77.10;;;;;;5039885;28;20189;-73
2023/06/08 03:52:45;;;;;;;7.60;3.70;;;17.30;78.00;;;;;;5039086;28;20230;-77
2023/06/08 03:55:12;;;;;;;8.77;4.43;;;17.20;78.50;;;;;;5042605;28;20188;-76
2023/06/08 03:57:40;;;;;;;7.17;5.00;;;17.10;78.80;;;;;;5042482;28;20187;-76
2023/06/08 04:00:11;;;;;;;6.93;5.37;;;17.00;79.10;;;;;;5049073;28;20646;-78
2023/06/08 04:02:39;;;;;;;7.77;5.90;;;17.00;79.80;;;;;;5048091;28;20659;-75
2023/06/08 04:05:07;;;;;;;7.53;7.00;;;16.90;79.80;;;;;;5042501;28;20180;-76
2023/06/08 04:07:36;;;;;;;9.43;8.17;;;16.90;80.10;;;;;;5047160;28;20688;-83
2023/06/08 04:10:05;;;;;;;8.83;8.17;;;16.80;81.00;;;;;;5047654;28;20454;-80
2023/06/08 04:12:32;;;;;;;11.53;10.47;;;16.70;81.00;;;;;;5038761;28;20321;-84
2023/06/08 04:15:01;;;;;;;11.50;10.80;;;16.70;81.60;;;;;;5043997;28;20242;-75
2023/06/08 04:17:28;;;;;;;13.77;12.67;;;16.60;81.40;;;;;;5047082;28;20212;-80
2023/06/08 04:19:56;;;;;;;11.97;11.17;;;16.60;81.60;;;;;;5042838;28;20648;-81
2023/06/08 04:22:23;;;;;;;11.67;10.93;;;16.60;81.20;;;;;;5025142;28;20228;-80
2023/06/08 04:24:50;;;;;;;12.13;11.50;;;16.60;81.60;;;;;;5041730;28;20184;-79
2023/06/08 04:27:19;;;;;;;13.37;12.47;;;16.50;81.60;;;;;;5041177;28;20223;-81
2023/06/08 04:29:46;;;;;;;13.47;12.47;;;16.60;81.70;;;;;;5050866;28;20657;-81
2023/06/08 04:32:13;;;;;;;12.70;11.80;;;16.60;81.80;;;;;;5048420;28;20181;-83
2023/06/08 04:34:41;;;;;;;12.47;11.77;;;16.50;81.60;;;;;;5047438;28;20270;-78
2023/06/08 04:37:08;;;;;;;12.70;11.97;;;16.50;81.60;;;;;;5038176;28;20199;-79
2023/06/08 04:39:35;;;;;;;12.87;11.97;;;16.50;81.50;;;;;;5045440;28;20180;-79
2023/06/08 04:42:05;;;;;;;13.50;12.60;;;16.50;81.70;;;;;;5041605;28;20182;-82
2023/06/08 04:44:34;;;;;;;13.50;12.50;;;16.50;81.60;;;;;;5040223;28;20175;-81
2023/06/08 04:47:06;;;;;;;14.97;14.07;;;16.50;81.60;;;;;;5040633;28;20212;-76
2023/06/08 04:49:34;;;;;;;13.87;12.97;;;16.50;82.00;;;;;;5035950;28;20273;-74
2023/06/08 04:52:02;;;;;;;14.73;13.47;;;16.50;81.40;;;;;;5023887;28;20188;-80
2023/06/08 04:54:29;;;;;;;14.53;13.67;;;16.50;81.90;;;;;;5032268;28;20731;-76
2023/06/08 04:56:59;;;;;;;14.43;13.43;;;16.50;81.60;;;;;;5050821;28;20227;-80
2023/06/08 04:59:28;;;;;;;14.03;12.73;;;16.50;81.70;;;;;;5049070;28;20680;-77
2023/06/08 05:01:56;;;;;;;17.30;15.87;;;16.40;81.50;;;;;;5042154;28;20249;-80
2023/06/08 05:04:25;;;;;;;17.27;16.17;;;16.40;82.30;;;;;;5044063;28;20189;-79
2023/06/08 05:06:52;;;;;;;17.50;16.30;;;16.40;82.40;;;;;;5044395;28;20210;-77
2023/06/08 05:09:19;;;;;;;20.13;19.03;;;16.30;82.60;;;;;;5053613;28;20180;-77
2023/06/08 05:11:47;;;;;;;22.27;21.17;;;16.30;82.80;;;;;;5048317;28;20191;-75
2023/06/08 05:14:14;;;;;;;25.10;23.63;;;16.30;83.10;;;;;;5045491;28;20179;-82
2023/06/08 05:16:41;;;;;;;23.33;22.00;;;16.30;83.50;;;;;;5041225;28;20184;-72
2023/06/08 05:19:09;;;;;;;21.77;20.40;;;16.20;83.00;;;;;;5038957;28;20216;-79
2023/06/08 05:21:39;;;;;;;25.77;24.27;;;16.20;83.00;;;;;;5047163;28;20183;-78
2023/06/08 05:24:07;;;;;;;29.37;27.30;;;16.20;83.60;;;;;;5044576;28;20177;-78
2023/06/08 05:26:35;;;;;;;29.40;27.70;;;16.20;83.90;;;;;;5048557;28;20543;-77
2023/06/08 05:29:02;;;;;;;28.80;27.03;;;16.10;83.60;;;;;;5054684;28;20549;-79
2023/06/08 05:31:29;;;;;;;25.57;23.87;;;16.20;83.80;;;;;;5045390;28;20278;-79
2023/06/08 05:33:57;;;;;;;22.40;21.20;;;16.20;83.20;;;;;;5048282;28;20725;-76
2023/06/08 05:36:24;;;;;;;23.87;22.23;;;16.20;83.10;;;;;;5041233;28;20584;-72
2023/06/08 05:38:51;;;;;;;24.53;23.07;;;16.20;83.30;;;;;;5042848;28;20179;-79
2023/06/08 05:41:19;;;;;;;27.70;26.13;;;16.20;83.30;;;;;;5053861;28;20650;-83
2023/06/08 05:43:46;;;;;;;21.83;20.33;;;16.20;83.50;;;;;;5048798;28;20172;-75
2023/06/08 05:46:15;;;;;;;19.13;18.03;;;16.20;82.60;;;;;;5049715;28;20221;-77
2023/06/08 05:48:42;;;;;;;15.77;14.87;;;16.20;82.30;;;;;;5033535;28;20210;-76
2023/06/08 05:51:09;;;;;;;16.17;15.27;;;16.20;82.00;;;;;;5040799;28;20179;-73
2023/06/08 05:53:38;;;;;;;16.83;15.73;;;16.20;82.10;;;;;;5047214;28;20189;-78
2023/06/08 05:56:05;;;;;;;15.63;14.73;;;16.30;82.00;;;;;;5041508;28;20176;-72
2023/06/08 05:58:33;;;;;;;13.23;12.43;;;16.30;81.80;;;;;;5046449;28;20176;-77
2023/06/08 06:01:04;;;;;;;13.80;13.00;;;16.30;81.50;;;;;;5047138;28;20185;-76
2023/06/08 06:03:31;;;;;;;14.57;13.67;;;16.30;81.50;;;;;;5039418;28;20187;-74
2023/06/08 06:05:59;;;;;;;13.10;12.30;;;16.30;81.50;;;;;;5036002;28;20651;-76
2023/06/08 06:08:26;;;;;;;12.93;12.03;;;16.30;81.40;;;;;;5040207;28;20692;-76
2023/06/08 06:10:54;;;;;;;13.70;12.80;;;16.30;81.20;;;;;;5046670;28;20663;-77
2023/06/08 06:13:21;;;;;;;13.90;13.00;;;16.30;81.60;;;;;;5041610;28;20194;-76
2023/06/08 06:15:48;;;;;;;14.03;13.13;;;16.30;81.50;;;;;;5035138;28;20312;-78
2023/06/08 06:18:17;;;;;;;13.80;12.90;;;16.30;81.80;;;;;;5046269;28;20185;-79
2023/06/08 06:20:44;;;;;;;14.73;13.83;;;16.30;81.60;;;;;;5047937;28;20187;-77
2023/06/08 06:23:11;;;;;;;13.93;12.90;;;16.30;81.70;;;;;;5050161;28;20560;-78
2023/06/08 06:25:39;;;;;;;13.33;12.40;;;16.30;81.40;;;;;;5032631;28;20564;-77
2023/06/08 06:28:06;;;;;;;12.53;11.73;;;16.30;81.50;;;;;;5037667;28;20214;-74
2023/06/08 06:30:33;;;;;;;14.67;13.73;;;16.30;81.50;;;;;;5024459;28;20539;-79
2023/06/08 06:33:01;;;;;;;15.03;13.97;;;16.30;81.60;;;;;;5037107;28;20608;-79
2023/06/08 06:35:28;;;;;;;13.07;12.27;;;16.30;81.60;;;;;;5045855;28;20217;-74
2023/06/08 06:37:55;;;;;;;13.47;12.47;;;16.30;81.40;;;;;;5048011;28;20265;-76
2023/06/08 06:40:23;;;;;;;12.53;11.73;;;16.30;81.50;;;;;;5046482;28;20183;-76
2023/06/08 06:42:50;;;;;;;13.17;12.47;;;16.30;81.40;;;;;;5047061;28;20638;-75
2023/06/08 06:45:17;;;;;;;12.13;11.43;;;16.30;81.60;;;;;;5039372;28;20191;-75
2023/06/08 06:47:45;;;;;;;12.57;11.67;;;16.30;81.60;;;;;;5037473;28;20218;-74
2023/06/08 06:50:12;;;;;;;11.73;10.93;;;16.30;81.50;;;;;;5052189;28;20201;-77
2023/06/08 06:52:39;;;;;;;12.60;11.80;;;16.30;81.20;;;;;;5034658;28;20184;-73
2023/06/08 06:55:07;;;;;;;12.07;11.27;;;16.30;81.10;;;;;;5038843;28;20171;-78
2023/06/08 06:57:35;;;;;;;10.53;9.90;;;16.30;81.00;;;;;;5041894;28;20675;-76
2023/06/08 07:00:08;;;;;;;11.13;10.47;;;16.30;80.90;;;;;;5038219;28;20168;-75
2023/06/08 07:02:37;;;;;;;12.27;11.37;;;16.30;81.00;;;;;;5036470;28;20181;-74
2023/06/08 07:05:07;;;;;;;11.70;11.00;;;16.30;81.20;;;;;;5039591;28;20217;-76
2023/06/08 07:07:35;;;;;;;12.33;11.60;;;16.30;81.50;;;;;;5038693;28;20221;-72
2023/06/08 07:10:03;;;;;;;12.63;11.83;;;16.30;81.50;;;;;;5037603;28;20178;-76
2023/06/08 07:12:30;;;;;;;11.77;10.97;;;16.30;81.60;;;;;;5033605;28;20175;-74
2023/06/08 07:14:58;;;;;;;11.83;10.90;;;16.30;81.50;;;;;;5045743;28;20620;-73
2023/06/08 07:17:25;;;;;;;11.43;10.73;;;16.30;81.50;;;;;;5047951;28;20183;-75
2023/06/08 07:19:53;;;;;;;11.53;10.83;;;16.30;81.40;;;;;;5040175;28;20182;-76
2023/06/08 07:22:21;;;;;;;11.77;11.17;;;16.30;81.40;;;;;;5039874;28;20210;-69
2023/06/08 07:24:48;;;;;;;13.53;12.63;;;16.20;81.50;;;;;;5039073;28;20172;-74
2023/06/08 07:27:16;;;;;;;11.83;11.03;;;16.20;81.90;;;;;;5039253;28;20221;-72
2023/06/08 07:29:43;;;;;;;13.90;13.00;;;16.20;81.90;;;;;;5048406;28;20270;-74
2023/06/08 07:32:12;;;;;;;11.97;11.30;;;16.10;81.90;;;;;;5047389;28;20192;-77
2023/06/08 07:34:39;;;;;;;12.60;11.70;;;16.10;81.70;;;;;;5052135;28;20279;-74
2023/06/08 07:37:06;;;;;;;13.10;12.17;;;16.10;81.70;;;;;;5048389;28;20222;-67
2023/06/08 07:39:34;;;;;;;12.53;11.63;;;16.00;81.90;;;;;;5046061;28;20181;-69
2023/06/08 07:42:02;;;;;;;13.07;12.13;;;16.00;82.10;;;;;;5034527;28;20848;-69
2023/06/08 07:44:30;;;;;;;14.33;13.33;;;15.90;82.30;;;;;;5036996;28;20181;-69
2023/06/08 07:46:57;;;;;;;15.00;14.00;;;15.90;82.50;;;;;;5040329;28;20758;-70
2023/06/08 07:49:25;;;;;;;14.57;13.67;;;15.80;82.70;;;;;;5039304;28;20183;-69
2023/06/08 07:51:52;;;;;;;15.60;14.70;;;15.80;82.70;;;;;;5047420;28;20175;-69
2023/06/08 07:54:19;;;;;;;15.43;14.60;;;15.70;82.80;;;;;;5039120;28;20668;-72
2023/06/08 07:56:48;;;;;;;16.17;15.13;;;15.70;82.80;;;;;;5047218;28;20208;-74
2023/06/08 07:59:15;;;;;;;17.20;16.07;;;15.70;82.90;;;;;;5040625;28;20183;-71
2023/06/08 08:01:45;;;;;;;16.80;15.70;;;15.60;83.20;;;;;;5051214;28;20181;-74
2023/06/08 08:04:13;;;;;;;19.33;18.03;;;15.60;83.20;;;;;;5048339;28;20258;-74
2023/06/08 08:06:40;;;;;;;19.00;17.60;;;15.60;83.20;;;;;;5054439;28;20201;-69
2023/06/08 08:09:07;;;;;;;18.27;17.00;;;15.50;83.20;;;;;;5038974;28;20184;-74
2023/06/08 08:11:36;;;;;;;18.57;17.37;;;15.50;83.50;;;;;;5052632;28;20228;-73
2023/06/08 08:14:09;;;;;;;18.43;17.23;;;15.50;83.50;;;;;;5043263;28;20195;-74
2023/06/08 08:16:37;;;;;;;19.20;17.87;;;15.50;83.50;;;;;;5045609;28;20187;-74
2023/06/08 08:19:05;;;;;;;18.27;16.80;;;15.50;83.30;;;;;;5045032;28;20212;-71
2023/06/08 08:21:32;;;;;;;17.50;16.40;;;15.50;83.20;;;;;;5046739;28;20172;-71
2023/06/08 08:24:01;;;;;;;16.40;15.43;;;15.50;83.00;;;;;;5036192;28;20189;-74
2023/06/08 08:26:31;;;;;;;15.90;15.00;;;15.50;83.00;;;;;;5039252;28;20766;-76
2023/06/08 08:28:59;;;;;;;17.03;16.07;;;15.40;83.10;;;;;;5041673;28;20196;-74
2023/06/08 08:31:26;;;;;;;17.73;16.77;;;15.40;83.30;;;;;;5039300;28;20181;-77
2023/06/08 08:33:53;;;;;;;18.20;17.10;;;15.30;83.60;;;;;;5053000;28;20184;-75
2023/06/08 08:36:21;;;;;;;18.57;17.57;;;15.30;83.60;;;;;;5045000;28;20191;-75
2023/06/08 08:38:48;;;;;;;19.33;18.23;;;15.20;83.80;;;;;;5041647;28;20644;-76
2023/06/08 08:41:19;;;;;;;20.43;19.17;;;15.10;83.90;;;;;;5054211;28;20182;-76
2023/06/08 08:44:03;;;;;;;24.00;22.63;;;15.10;84.20;;;;;;5037007;28;20196;-75
2023/06/08 08:46:34;;;;;;;22.73;21.43;;;15.10;84.20;;;;;;5043980;28;20208;-74
2023/06/08 08:49:08;;;;;;;23.77;22.17;;;15.10;84.10;;;;;;5035053;28;20212;-73
2023/06/08 08:51:39;;;;;;;24.33;22.63;;;15.10;84.00;;;;;;5047304;28;20661;-77
2023/06/08 08:54:09;;;;;;;22.30;20.90;;;15.00;84.20;;;;;;5048530;28;20170;-79
2023/06/08 08:56:37;;;;;;;22.60;21.40;;;15.00;84.10;;;;;;5047989;28;20215;-74
2023/06/08 08:59:05;;;;;;;25.00;23.40;;;15.00;84.10;;;;;;5042116;28;20211;-75
2023/06/08 09:01:34;;;;;;;22.80;21.50;;;14.90;84.20;;;;;;5049984;28;20262;-75
2023/06/08 09:04:03;;;;;;;23.03;21.70;;;14.90;84.20;;;;;;5040913;28;20196;-76
2023/06/08 09:06:30;;;;;;;24.57;23.07;;;14.80;84.20;;;;;;5034840;28;21754;-74
2023/06/08 09:08:58;;;;;;;25.97;24.37;;;14.80;84.40;;;;;;5047015;28;20185;-74
2023/06/08 09:11:26;;;;;;;23.10;21.70;;;14.80;84.40;;;;;;5046436;28;20226;-75
2023/06/08 09:14:08;;;;;;;25.67;23.80;;;14.70;84.70;;;;;;5035082;28;20226;-74
2023/06/08 09:16:45;;;;;;;27.87;26.13;;;14.70;84.50;;;;;;5042175;28;20187;-75
2023/06/08 09:19:13;;;;;;;28.63;26.93;;;14.60;84.70;;;;;;5051929;28;20176;-74
2023/06/08 09:21:44;;;;;;;30.37;28.77;;;14.60;84.90;;;;;;5048279;28;20515;-75
2023/06/08 09:24:12;;;;;;;31.37;29.47;;;14.50;85.20;;;;;;5043444;28;20219;-75
2023/06/08 09:26:53;;;;;;;29.00;27.50;;;14.30;85.30;;;;;;5051641;28;20224;-74
2023/06/08 09:29:42;;;;;;;32.03;30.00;;;14.30;85.50;;;;;;5050008;28;20186;-75
2023/06/08 09:32:14;;;;;;;32.60;30.70;;;14.30;85.70;;;;;;5049640;28;20230;-74
2023/06/08 09:34:55;;;;;;;34.77;32.77;;;14.30;85.60;;;;;;5046355;28;20673;-75
2023/06/08 09:37:30;;;;;;;35.63;33.63;;;14.20;85.70;;;;;;5050201;28;20184;-75
2023/06/08 09:40:00;;;;;;;37.13;35.07;;;14.20;85.60;;;;;;5039244;28;20183;-74
2023/06/08 09:42:50;;;;;;;38.40;36.30;;;14.10;85.60;;;;;;5040831;28;20194;-72
2023/06/08 09:45:18;;;;;;;38.57;36.57;;;14.00;85.70;;;;;;5040238;28;20187;-72
2023/06/08 09:47:45;;;;;;;39.87;37.67;;;14.00;85.90;;;;;;5051693;28;20248;-74
2023/06/08 09:50:13;;;;;;;41.80;39.60;;;14.00;86.10;;;;;;5047549;28;20215;-73
2023/06/08 09:52:41;;;;;;;44.53;42.03;;;14.00;86.00;;;;;;5041933;28;20192;-75
2023/06/08 09:55:10;;;;;;;47.37;44.47;;;13.90;86.20;;;;;;5043084;28;20228;-73
2023/06/08 09:57:38;;;;;;;47.97;45.07;;;13.80;86.30;;;;;;5045710;28;20192;-73
2023/06/08 10:00:20;;;;;;;46.00;43.27;;;13.80;86.60;;;;;;5047810;28;20233;-74
2023/06/08 10:03:02;;;;;;;47.27;44.43;;;13.80;86.60;;;;;;5039639;28;20202;-76
2023/06/08 10:05:33;;;;;;;52.20;49.20;;;13.80;86.70;;;;;;5046757;28;20306;-76
2023/06/08 10:08:02;;;;;;;53.30;50.30;;;13.80;87.00;;;;;;5040712;28;20243;-76
2023/06/08 10:10:39;;;;;;;59.17;55.77;;;13.80;87.00;;;;;;5034310;28;20189;-74
2023/06/08 10:13:07;;;;;;;59.53;56.33;;;13.80;86.90;;;;;;5052107;28;20191;-73
2023/06/08 10:15:35;;;;;;;59.70;56.40;;;13.70;87.10;;;;;;5041715;28;20579;-74
2023/06/08 10:18:03;;;;;;;60.13;56.93;;;13.70;87.20;;;;;;5031781;28;20187;-75
2023/06/08 10:20:31;;;;;;;60.43;57.17;;;13.60;87.20;;;;;;5045172;28;20302;-73
2023/06/08 10:23:03;;;;;;;63.40;59.80;;;13.50;87.30;;;;;;5040264;28;20215;-69
2023/06/08 10:25:30;;;;;;;62.37;58.97;;;13.50;87.40;;;;;;5044582;28;20215;-73
2023/06/08 10:28:06;;;;;;;66.33;62.63;;;13.40;87.40;;;;;;5039434;28;20204;-71
2023/06/08 10:30:41;;;;;;;65.80;62.20;;;13.30;87.60;;;;;;5052325;28;20167;-74
2023/06/08 10:33:15;;;;;;;66.50;62.93;;;13.20;87.70;;;;;;5037432;28;20264;-74
2023/06/08 10:36:02;;;;;;;69.27;65.37;;;13.20;88.00;;;;;;5039351;28;20269;-74
2023/06/08 10:38:31;;;;;;;68.17;64.47;;;13.20;88.20;;;;;;5035316;28;20190;-75
2023/06/08 10:40:58;;;;;;;74.63;70.73;;;13.20;88.20;;;;;;5041571;28;20672;-75
2023/06/08 10:43:28;;;;;;;73.93;70.13;;;13.20;88.20;;;;;;5051223;28;20596;-76
2023/06/08 10:45:58;;;;;;;78.03;74.03;;;13.10;88.30;;;;;;5048336;28;20187;-76
2023/06/08 10:48:39;;;;;;;79.57;75.33;;;13.00;88.30;;;;;;5044040;28;20220;-76
2023/06/08 10:51:12;;;;;;;79.70;75.30;;;13.00;88.50;;;;;;5045888;28;20255;-74
2023/06/08 10:53:56;;;;;;;83.53;79.17;;;13.00;88.60;;;;;;5039983;28;20188;-76
2023/06/08 10:56:30;;;;;;;82.93;78.33;;;13.00;88.80;;;;;;5038153;28;20650;-75
2023/06/08 10:58:57;;;;;;;88.50;83.87;;;13.00;88.80;;;;;;5036666;28;20319;-75
2023/06/08 11:01:33;;;;;;;85.47;80.97;;;13.00;88.90;;;;;;5039020;28;20180;-77
2023/06/08 11:04:01;;;;;;;90.40;85.50;;;13.00;89.00;;;;;;5036611;28;20808;-75
2023/06/08 11:06:30;;;;;;;87.60;82.90;;;13.00;88.90;;;;;;5028702;28;20187;-75
2023/06/08 11:08:58;;;;;;;91.13;86.23;;;13.00;89.00;;;;;;5045106;28;20230;-75
2023/06/08 11:11:26;;;;;;;83.83;79.27;;;13.00;89.10;;;;;;5037369;28;20187;-74
2023/06/08 11:13:53;;;;;;;89.03;84.23;;;13.00;88.90;;;;;;5037425;28;20176;-74
2023/06/08 11:16:21;;;;;;;97.00;91.83;;;13.00;89.00;;;;;;5040941;28;20187;-74
2023/06/08 11:18:48;;;;;;;96.97;91.77;;;12.90;88.90;;;;;;5038202;28;20186;-75
2023/06/08 11:21:15;;;;;;;93.10;88.00;;;12.90;89.10;;;;;;5040210;28;20180;-75
2023/06/08 11:23:42;;;;;;;64.43;60.90;;;12.90;88.90;;;;;;5040512;28;20187;-76
2023/06/08 11:26:12;;;;;;;72.53;68.43;;;12.80;88.60;;;;;;5035613;28;20578;-75
2023/06/08 11:28:39;;;;;;;75.90;71.83;;;12.80;88.00;;;;;;5044550;28;20224;-75
2023/06/08 11:31:09;;;;;;;70.50;66.70;;;12.80;87.90;;;;;;5047987;28;20598;-73
2023/06/08 11:33:44;;;;;;;56.03;53.07;;;12.80;87.60;;;;;;5047913;28;20194;-74
2023/06/08 11:36:11;;;;;;;57.47;54.20;;;12.70;87.40;;;;;;5043981;28;20198;-74
2023/06/08 11:38:40;;;;;;;56.83;53.67;;;12.60;87.40;;;;;;5046921;28;20188;-74
2023/06/08 11:41:11;;;;;;;61.50;58.10;;;12.60;87.40;;;;;;5049217;28;20184;-75
2023/06/08 11:43:41;;;;;;;57.70;54.60;;;12.50;87.50;;;;;;5058220;28;20210;-76
2023/06/08 11:46:10;;;;;;;56.90;53.63;;;12.50;87.70;;;;;;5044023;28;20187;-75
2023/06/08 11:48:38;;;;;;;49.70;46.60;;;12.50;87.70;;;;;;5041853;28;20223;-76
2023/06/08 11:51:07;;;;;;;50.90;47.80;;;12.50;87.70;;;;;;5049833;28;20188;-75
2023/06/08 11:53:34;;;;;;;48.67;45.80;;;12.50;87.60;;;;;;5046132;28;20184;-77
2023/06/08 11:56:03;;;;;;;51.33;47.90;;;12.40;87.60;;;;;;5052717;28;20190;-75
2023/06/08 11:58:34;;;;;;;52.97;49.80;;;12.40;87.60;;;;;;5053305;28;20243;-75
2023/06/08 12:01:13;;;;;;;53.20;50.17;;;12.40;87.80;;;;;;5023162;28;20203;-75
2023/06/08 12:03:48;;;;;;;50.50;47.53;;;12.40;87.80;;;;;;5038373;28;20207;-74
2023/06/08 12:06:17;;;;;;;51.30;48.37;;;12.30;87.70;;;;;;5051406;28;20961;-74
2023/06/08 12:08:45;;;;;;;57.30;54.30;;;12.30;88.20;;;;;;5040790;28;20212;-74
2023/06/08 12:11:13;;;;;;;63.47;59.50;;;12.30;88.10;;;;;;5049689;28;20206;-74
2023/06/08 12:13:41;;;;;;;67.73;63.80;;;12.40;88.30;;;;;;5049748;28;20192;-73
2023/06/08 12:16:10;;;;;;;68.10;64.40;;;12.40;88.00;;;;;;5054909;28;20188;-75
2023/06/08 12:18:42;;;;;;;64.73;61.17;;;12.30;87.90;;;;;;5046353;28;20359;-71
2023/06/08 12:21:18;;;;;;;55.33;51.97;;;12.20;87.80;;;;;;5047338;28;20574;-74
2023/06/08 12:23:46;;;;;;;51.97;48.97;;;12.00;88.10;;;;;;5037897;28;20180;-74
2023/06/08 12:26:14;;;;;;;58.27;54.97;;;12.00;87.80;;;;;;5057311;28;20277;-74
2023/06/08 12:28:43;;;;;;;56.47;53.37;;;12.00;87.80;;;;;;5049587;28;20219;-74
2023/06/08 12:31:10;;;;;;;49.13;46.40;;;12.00;87.90;;;;;;5056286;28;20191;-73
2023/06/08 12:33:37;;;;;;;46.50;43.83;;;12.00;87.80;;;;;;5044718;28;20269;-74
2023/06/08 12:36:06;;;;;;;47.57;44.93;;;11.90;87.70;;;;;;5042843;28;20188;-73
2023/06/08 12:38:34;;;;;;;46.40;43.73;;;11.90;87.80;;;;;;5051425;28;20242;-73
2023/06/08 12:41:01;;;;;;;43.83;41.27;;;11.90;87.70;;;;;;5057711;28;20274;-68
2023/06/08 12:43:28;;;;;;;43.23;40.23;;;11.90;87.60;;;;;;5038693;28;20189;-68